Terminal Aerodrome Forecast
Issued by NWS

Home | Current Version | Previous Version | Text Only | Print | Product List | Glossary On
Versions: 1 2 3 4 5 6 7 8 9 10 11 12 13 14 15 16 17 18 19 20 21 22 23 24 25 26 27 28 29 30
000
FTUS43 KILX 151346 AAA
TAFCMI
TAF AMD
KCMI 151346Z 1514/1612 19010KT 6SM -RA BR VCTS SCT030CB BKN070
     FM151600 19011KT P6SM VCSH BKN070
     FM151800 19013G19KT P6SM BKN100
     FM160000 21010KT P6SM SCT100
     FM161100 29006KT P6SM FEW250=

USA.gov is the U.S. government's official web portal to all federal, state and local government web resources and services.